createdAt,value
2023-02-26T00:01:18.843Z,0.00
2023-02-26T00:03:51.212Z,0.00
2023-02-26T00:06:19.530Z,0.00
2023-02-26T00:08:47.794Z,0.00
2023-02-26T00:11:16.266Z,0.00
2023-02-26T00:13:45.173Z,0.00
2023-02-26T00:16:20.695Z,-0.10
2023-02-26T00:18:49.119Z,0.00
2023-02-26T00:21:20.095Z,-0.10
2023-02-26T00:23:48.403Z,-0.30
2023-02-26T00:26:16.730Z,-0.10
2023-02-26T00:28:45.332Z,-0.20
2023-02-26T00:31:15.679Z,-0.20
2023-02-26T00:33:45.417Z,-0.20
2023-02-26T00:36:18.997Z,-0.30
2023-02-26T00:38:51.019Z,-0.20
2023-02-26T00:41:19.673Z,-0.30
2023-02-26T00:43:48.131Z,-0.40
2023-02-26T00:46:25.668Z,-0.30
2023-02-26T00:48:56.959Z,-0.20
2023-02-26T00:51:29.518Z,-0.20
2023-02-26T00:54:02.372Z,-0.20
2023-02-26T00:56:30.673Z,-0.20
2023-02-26T00:58:59.128Z,-0.30
2023-02-26T01:01:29.180Z,-0.30
2023-02-26T01:03:57.849Z,-0.30
2023-02-26T01:06:28.816Z,-0.20
2023-02-26T01:09:03.753Z,-0.10
2023-02-26T01:11:33.579Z,0.00
2023-02-26T01:14:02.136Z,0.00
2023-02-26T01:16:32.515Z,0.00
2023-02-26T01:19:03.674Z,0.00
2023-02-26T01:21:34.384Z,0.00
2023-02-26T01:24:04.957Z,-0.10
2023-02-26T01:26:37.026Z,0.00
2023-02-26T01:29:05.347Z,0.10
2023-02-26T01:31:36.154Z,0.10
2023-02-26T01:34:08.049Z,0.00
2023-02-26T01:36:42.190Z,0.00
2023-02-26T01:39:14.010Z,0.00
2023-02-26T01:41:45.361Z,0.00
2023-02-26T01:44:16.839Z,0.00
2023-02-26T01:46:59.290Z,0.10
2023-02-26T01:49:27.975Z,0.00
2023-02-26T01:51:57.247Z,-0.10
2023-02-26T01:54:26.252Z,-0.10
2023-02-26T01:57:02.678Z,-0.10
2023-02-26T01:59:30.953Z,0.00
2023-02-26T02:01:59.661Z,0.00
2023-02-26T02:04:28.339Z,0.00
2023-02-26T02:06:56.728Z,0.00
2023-02-26T02:09:25.064Z,0.00
2023-02-26T02:12:08.363Z,0.10
2023-02-26T02:14:43.944Z,0.00
2023-02-26T02:17:15.568Z,0.00
2023-02-26T02:19:58.559Z,-0.10
2023-02-26T02:22:41.710Z,-0.10
2023-02-26T02:25:14.443Z,0.00
2023-02-26T02:27:47.250Z,0.00
2023-02-26T02:30:30.708Z,-0.10
2023-02-26T02:33:01.699Z,-0.10
2023-02-26T02:35:32.864Z,-0.10
2023-02-26T02:38:05.819Z,-0.20
2023-02-26T02:40:35.291Z,-0.20
2023-02-26T02:43:04.983Z,-0.20
2023-02-26T02:45:35.506Z,-0.20
2023-02-26T02:48:09.447Z,-0.20
2023-02-26T02:50:39.732Z,-0.20
2023-02-26T02:53:10.259Z,-0.20
2023-02-26T02:55:39.916Z,-0.10
2023-02-26T02:58:09.027Z,-0.10
2023-02-26T03:00:43.177Z,-0.10
2023-02-26T03:03:19.105Z,-0.20
2023-02-26T03:05:47.644Z,-0.20
2023-02-26T03:08:17.592Z,-0.20
2023-02-26T03:10:46.161Z,-0.20
2023-02-26T03:13:16.774Z,-0.10
2023-02-26T03:15:48.483Z,-0.20
2023-02-26T03:18:24.311Z,-0.20
2023-02-26T03:20:57.533Z,-0.20
2023-02-26T03:23:27.998Z,-0.20
2023-02-26T03:25:58.228Z,0.00
2023-02-26T03:28:28.756Z,-0.10
2023-02-26T03:30:59.498Z,-0.10
2023-02-26T03:33:32.254Z,-0.10
2023-02-26T03:36:02.189Z,0.00
2023-02-26T03:38:34.287Z,-0.10
2023-02-26T03:41:04.574Z,-0.10
2023-02-26T03:43:35.026Z,-0.10
2023-02-26T03:46:05.140Z,-0.10
2023-02-26T03:48:36.567Z,-0.20
2023-02-26T03:51:06.817Z,-0.10
2023-02-26T03:53:38.001Z,-0.10
2023-02-26T03:56:08.346Z,-0.10
2023-02-26T03:58:36.703Z,-0.10
2023-02-26T04:01:06.446Z,-0.20
2023-02-26T04:03:38.549Z,-0.20
2023-02-26T04:06:07.332Z,-0.20
2023-02-26T04:08:35.505Z,-0.10
2023-02-26T04:11:07.477Z,-0.10
2023-02-26T04:13:35.817Z,-0.10
2023-02-26T04:16:04.222Z,-0.10
2023-02-26T04:18:32.506Z,-0.20
2023-02-26T04:21:02.251Z,-0.20
2023-02-26T04:23:30.760Z,-0.20
2023-02-26T04:25:58.984Z,-0.20
2023-02-26T04:28:27.159Z,-0.20
2023-02-26T04:30:55.375Z,-0.10
2023-02-26T04:33:23.696Z,-0.10
2023-02-26T04:35:51.858Z,-0.20
2023-02-26T04:38:21.424Z,-0.10
2023-02-26T04:40:50.415Z,-0.10
2023-02-26T04:43:18.772Z,-0.20
2023-02-26T04:45:47.161Z,-0.10
2023-02-26T04:48:17.947Z,-0.10
2023-02-26T04:50:49.152Z,0.00
2023-02-26T04:53:17.533Z,0.00
2023-02-26T04:55:51.398Z,0.00
2023-02-26T04:58:20.587Z,0.10
2023-02-26T05:00:50.698Z,0.00
2023-02-26T05:03:19.290Z,0.00
2023-02-26T05:05:47.647Z,0.00
2023-02-26T05:08:15.840Z,0.10
2023-02-26T05:10:43.980Z,0.10
2023-02-26T05:13:13.671Z,0.10
2023-02-26T05:15:42.228Z,0.10
2023-02-26T05:18:10.440Z,0.10
2023-02-26T05:20:39.231Z,0.10
2023-02-26T05:23:07.420Z,0.10
2023-02-26T05:25:35.672Z,0.10
2023-02-26T05:28:04.046Z,0.10
2023-02-26T05:30:33.669Z,0.10
2023-02-26T05:33:01.820Z,0.10
2023-02-26T05:35:30.099Z,0.00
2023-02-26T05:37:58.292Z,0.10
2023-02-26T05:40:26.446Z,0.10
2023-02-26T05:42:54.711Z,0.10
2023-02-26T05:45:22.832Z,0.10
2023-02-26T05:47:52.408Z,0.20
2023-02-26T05:50:20.727Z,0.20
2023-02-26T05:52:48.855Z,0.20
2023-02-26T05:55:18.578Z,0.10
2023-02-26T05:57:46.724Z,0.20
2023-02-26T06:00:15.692Z,0.10
2023-02-26T06:02:44.148Z,0.20
2023-02-26T06:05:13.854Z,0.20
2023-02-26T06:07:42.026Z,0.20
2023-02-26T06:10:11.188Z,0.20
2023-02-26T06:12:39.767Z,0.20
2023-02-26T06:15:09.033Z,0.20
2023-02-26T06:17:39.548Z,0.30
2023-02-26T06:20:09.390Z,0.30
2023-02-26T06:22:39.190Z,0.30
2023-02-26T06:25:07.939Z,0.30
2023-02-26T06:27:36.375Z,0.30
2023-02-26T06:30:04.777Z,0.30
2023-02-26T06:32:32.959Z,0.30
2023-02-26T06:35:01.245Z,0.40
2023-02-26T06:37:29.644Z,0.30
2023-02-26T06:39:59.371Z,0.30
2023-02-26T06:42:27.528Z,0.30
2023-02-26T06:44:58.541Z,0.40
2023-02-26T06:47:26.827Z,0.40
2023-02-26T06:49:55.251Z,0.40
2023-02-26T06:52:23.399Z,0.40
2023-02-26T06:54:51.712Z,0.40
2023-02-26T06:57:21.403Z,0.40
2023-02-26T06:59:50.396Z,0.40
2023-02-26T07:02:19.265Z,0.40
2023-02-26T07:04:47.420Z,0.50
2023-02-26T07:07:15.811Z,0.50
2023-02-26T07:09:45.851Z,0.50
2023-02-26T07:12:14.380Z,0.50
2023-02-26T07:14:45.934Z,0.50
2023-02-26T07:17:20.580Z,0.50
2023-02-26T07:19:49.367Z,0.60
2023-02-26T07:22:19.035Z,0.60
2023-02-26T07:24:49.636Z,0.60
2023-02-26T07:27:18.200Z,0.60
2023-02-26T07:29:47.969Z,0.60
2023-02-26T07:32:16.171Z,0.70
2023-02-26T07:34:44.480Z,0.70
2023-02-26T07:37:12.894Z,0.70
2023-02-26T07:39:41.088Z,0.70
2023-02-26T07:42:09.291Z,0.70
2023-02-26T07:44:37.737Z,0.70
2023-02-26T07:47:07.447Z,0.70
2023-02-26T07:49:35.626Z,0.70
2023-02-26T07:52:03.826Z,0.70
2023-02-26T07:54:32.136Z,0.80
2023-02-26T07:57:00.220Z,0.80
2023-02-26T07:59:28.453Z,0.80
2023-02-26T08:01:57.149Z,0.80
2023-02-26T08:04:26.944Z,0.80
2023-02-26T08:06:56.514Z,0.80
2023-02-26T08:09:24.723Z,0.80
2023-02-26T08:11:52.936Z,0.80
2023-02-26T08:14:21.250Z,0.90
2023-02-26T08:16:49.343Z,0.90
2023-02-26T08:19:18.455Z,0.80
2023-02-26T08:21:50.013Z,0.80
2023-02-26T08:24:18.914Z,0.80
2023-02-26T08:26:47.120Z,0.80
2023-02-26T08:29:15.663Z,0.90
2023-02-26T08:31:43.860Z,0.90
2023-02-26T08:34:12.181Z,1.00
2023-02-26T08:36:40.502Z,1.00
2023-02-26T08:39:10.171Z,0.90
2023-02-26T08:41:38.338Z,0.90
2023-02-26T08:44:07.196Z,0.90
2023-02-26T08:46:35.708Z,0.90
2023-02-26T08:49:03.961Z,1.00
2023-02-26T08:51:32.289Z,1.10
2023-02-26T08:54:00.417Z,1.30
2023-02-26T08:56:29.971Z,1.20
2023-02-26T08:58:58.262Z,1.10
2023-02-26T09:01:26.911Z,1.10
2023-02-26T09:03:56.757Z,1.10
2023-02-26T09:06:25.347Z,1.10
2023-02-26T09:08:54.926Z,1.10
2023-02-26T09:11:23.274Z,1.20
2023-02-26T09:13:53.030Z,1.20
2023-02-26T09:16:21.282Z,1.10
2023-02-26T09:18:49.639Z,1.00
2023-02-26T09:21:17.979Z,1.00
2023-02-26T09:23:46.142Z,1.00
2023-02-26T09:26:14.381Z,1.00
2023-02-26T09:28:42.726Z,1.00
2023-02-26T09:31:17.475Z,1.00
2023-02-26T09:33:45.772Z,1.00
2023-02-26T09:36:13.964Z,0.90
2023-02-26T09:38:43.505Z,0.80
2023-02-26T09:41:17.399Z,0.70
2023-02-26T09:43:58.240Z,0.80
2023-02-26T09:46:31.813Z,0.80
2023-02-26T09:49:05.612Z,0.90
2023-02-26T09:51:35.340Z,0.80
2023-02-26T09:54:10.387Z,0.60
2023-02-26T09:56:38.722Z,0.60
2023-02-26T09:59:06.864Z,0.60
2023-02-26T10:01:43.899Z,0.50
2023-02-26T10:04:19.424Z,0.40
2023-02-26T10:06:54.150Z,0.40
2023-02-26T10:09:32.408Z,0.60
2023-02-26T10:12:03.745Z,0.70
2023-02-26T10:14:35.834Z,0.80
2023-02-26T10:17:08.459Z,0.80
2023-02-26T10:19:38.580Z,0.90
2023-02-26T10:22:11.332Z,1.00
2023-02-26T10:24:42.134Z,0.90
2023-02-26T10:27:13.407Z,0.90
2023-02-26T10:29:44.992Z,0.70
2023-02-26T10:32:21.951Z,0.80
2023-02-26T10:34:53.886Z,0.60
2023-02-26T10:37:25.272Z,0.60
2023-02-26T10:39:56.236Z,0.60
2023-02-26T10:42:27.414Z,0.70
2023-02-26T10:45:06.856Z,0.60
2023-02-26T10:47:44.509Z,0.80
2023-02-26T10:50:14.340Z,0.80
2023-02-26T10:52:43.408Z,0.90
2023-02-26T10:55:27.760Z,0.90
2023-02-26T10:57:58.029Z,0.70
2023-02-26T11:00:26.344Z,0.70
2023-02-26T11:02:56.776Z,0.90
2023-02-26T11:05:26.416Z,0.80
2023-02-26T11:07:56.151Z,0.80
2023-02-26T11:10:26.797Z,0.90
2023-02-26T11:12:55.144Z,0.90
2023-02-26T11:15:24.133Z,1.00
2023-02-26T11:17:58.007Z,0.90
2023-02-26T11:20:30.817Z,0.90
2023-02-26T11:23:00.787Z,0.90
2023-02-26T11:25:30.130Z,0.90
2023-02-26T11:28:01.109Z,0.90
2023-02-26T11:30:31.690Z,0.90
2023-02-26T11:33:06.141Z,1.10
2023-02-26T11:35:34.312Z,0.90
2023-02-26T11:38:03.814Z,0.80
2023-02-26T11:40:35.918Z,0.60
2023-02-26T11:43:06.655Z,0.80
2023-02-26T11:45:36.876Z,0.80
2023-02-26T11:48:13.741Z,0.70
2023-02-26T11:50:47.327Z,0.90
2023-02-26T11:53:19.525Z,0.90
2023-02-26T11:55:49.342Z,0.80
2023-02-26T11:58:19.328Z,0.80
2023-02-26T12:00:49.543Z,0.60
2023-02-26T12:03:21.920Z,0.50
2023-02-26T12:05:50.334Z,0.60
2023-02-26T12:08:20.508Z,0.70
2023-02-26T12:10:55.178Z,0.60
2023-02-26T12:13:28.607Z,0.70
2023-02-26T12:15:58.401Z,0.80
2023-02-26T12:18:35.337Z,0.80
2023-02-26T12:21:11.675Z,0.80
2023-02-26T12:23:56.871Z,0.80
2023-02-26T12:26:28.372Z,0.80
2023-02-26T12:29:05.724Z,0.80
2023-02-26T12:32:00.921Z,0.70
2023-02-26T12:34:39.148Z,0.90
2023-02-26T12:37:16.096Z,0.70
2023-02-26T12:39:50.370Z,0.60
2023-02-26T12:42:22.769Z,0.40
2023-02-26T12:45:11.881Z,0.30
2023-02-26T12:47:45.329Z,0.40
2023-02-26T12:50:27.774Z,0.50
2023-02-26T12:53:11.595Z,0.50
2023-02-26T12:55:44.477Z,0.50
2023-02-26T12:58:27.416Z,0.50
2023-02-26T13:01:04.156Z,0.60
2023-02-26T13:04:05.402Z,0.60
2023-02-26T13:06:57.144Z,0.60
2023-02-26T13:09:32.088Z,0.40
2023-02-26T13:12:13.103Z,0.40
2023-02-26T13:14:46.815Z,0.50
2023-02-26T13:17:20.259Z,0.50
2023-02-26T13:19:49.851Z,0.60
2023-02-26T13:22:21.383Z,0.60
2023-02-26T13:24:54.295Z,0.60
2023-02-26T13:27:25.476Z,0.70
2023-02-26T13:29:57.617Z,0.70
2023-02-26T13:32:30.085Z,0.50
2023-02-26T13:34:59.208Z,0.40
2023-02-26T13:37:29.315Z,0.40
2023-02-26T13:40:06.661Z,0.40
2023-02-26T13:42:38.691Z,0.50
2023-02-26T13:45:17.859Z,0.30
2023-02-26T13:47:55.594Z,0.40
2023-02-26T13:50:28.691Z,0.50
2023-02-26T13:52:57.807Z,0.60
2023-02-26T13:55:42.577Z,0.70
2023-02-26T13:58:29.589Z,0.70
2023-02-26T14:01:06.009Z,0.60
2023-02-26T14:03:34.737Z,0.50
2023-02-26T14:06:24.811Z,0.50
2023-02-26T14:08:55.218Z,0.60
2023-02-26T14:11:34.487Z,0.60
2023-02-26T14:14:23.710Z,0.60
2023-02-26T14:16:55.340Z,0.60
2023-02-26T14:19:25.663Z,0.50
2023-02-26T14:21:57.825Z,0.60
2023-02-26T14:24:32.486Z,0.60
2023-02-26T14:27:19.339Z,0.60
2023-02-26T14:30:00.407Z,0.70
2023-02-26T14:32:31.448Z,0.60
2023-02-26T14:35:01.335Z,0.60
2023-02-26T14:37:30.146Z,0.70
2023-02-26T14:40:00.607Z,0.80
2023-02-26T14:42:33.648Z,0.70
2023-02-26T14:45:07.750Z,0.70
2023-02-26T14:47:36.417Z,0.60
2023-02-26T14:50:04.907Z,0.60
2023-02-26T14:52:40.849Z,0.50
2023-02-26T14:55:23.140Z,0.50
2023-02-26T14:57:56.407Z,0.50
2023-02-26T15:00:32.447Z,0.40
2023-02-26T15:03:13.724Z,0.30
2023-02-26T15:05:45.191Z,0.30
2023-02-26T15:08:29.938Z,0.30
2023-02-26T15:11:05.945Z,0.40
2023-02-26T15:13:40.670Z,0.40
2023-02-26T15:16:16.843Z,0.40
2023-02-26T15:18:55.521Z,0.40
2023-02-26T15:21:28.617Z,0.40
2023-02-26T15:23:58.286Z,0.40
2023-02-26T15:26:28.944Z,0.30
2023-02-26T15:28:57.741Z,0.40
2023-02-26T15:31:32.832Z,0.40
2023-02-26T15:34:03.141Z,0.40
2023-02-26T15:36:32.007Z,0.30
2023-02-26T15:39:01.213Z,0.20
2023-02-26T15:41:30.657Z,0.30
2023-02-26T15:44:00.664Z,0.20
2023-02-26T15:46:31.484Z,0.20
2023-02-26T15:49:05.549Z,0.10
2023-02-26T15:51:33.737Z,0.10
2023-02-26T15:54:03.385Z,0.10
2023-02-26T15:56:32.656Z,0.10
2023-02-26T15:59:01.921Z,0.00
2023-02-26T16:01:34.173Z,0.00
2023-02-26T16:04:03.411Z,0.00
2023-02-26T16:06:33.911Z,-0.10
2023-02-26T16:09:02.325Z,-0.10
2023-02-26T16:11:33.665Z,-0.20
2023-02-26T16:14:02.342Z,-0.10
2023-02-26T16:16:43.662Z,-0.20
2023-02-26T16:19:14.824Z,-0.20
2023-02-26T16:21:43.283Z,-0.30
2023-02-26T16:24:15.378Z,-0.40
2023-02-26T16:26:45.234Z,-0.50
2023-02-26T16:29:15.318Z,-0.50
2023-02-26T16:31:47.258Z,-0.60
2023-02-26T16:34:31.770Z,-0.70
2023-02-26T16:37:00.241Z,-0.70
2023-02-26T16:39:31.502Z,-0.80
2023-02-26T16:42:03.663Z,-0.90
2023-02-26T16:44:47.169Z,-0.90
2023-02-26T16:47:17.483Z,-1.00
2023-02-26T16:49:45.739Z,-1.00
2023-02-26T16:52:17.352Z,-1.20
2023-02-26T16:54:49.707Z,-1.20
2023-02-26T16:57:18.663Z,-1.30
2023-02-26T16:59:50.892Z,-1.40
2023-02-26T17:02:22.931Z,-1.40
2023-02-26T17:04:53.662Z,-1.40
2023-02-26T17:07:24.088Z,-1.50
2023-02-26T17:09:54.287Z,-1.50
2023-02-26T17:12:24.071Z,-1.60
2023-02-26T17:14:54.643Z,-1.70
2023-02-26T17:17:24.705Z,-1.70
2023-02-26T17:19:53.287Z,-1.80
2023-02-26T17:22:30.067Z,-1.90
2023-02-26T17:24:58.213Z,-2.00
2023-02-26T17:27:29.193Z,-2.00
2023-02-26T17:29:58.988Z,-2.00
2023-02-26T17:32:31.030Z,-2.10
2023-02-26T17:34:59.686Z,-2.10
2023-02-26T17:37:31.532Z,-2.20
2023-02-26T17:40:00.195Z,-2.20
2023-02-26T17:42:28.377Z,-2.30
2023-02-26T17:44:56.995Z,-2.40
2023-02-26T17:47:26.523Z,-2.40
2023-02-26T17:49:56.282Z,-2.50
2023-02-26T17:52:24.696Z,-2.40
2023-02-26T17:54:53.196Z,-2.50
2023-02-26T17:57:22.986Z,-2.50
2023-02-26T17:59:51.349Z,-2.50
2023-02-26T18:02:22.342Z,-2.60
2023-02-26T18:04:50.781Z,-2.60
2023-02-26T18:07:20.657Z,-2.70
2023-02-26T18:09:49.307Z,-2.70
2023-02-26T18:12:18.681Z,-2.70
2023-02-26T18:14:46.910Z,-2.80
2023-02-26T18:17:15.809Z,-2.90
2023-02-26T18:19:46.479Z,-3.00
2023-02-26T18:22:15.214Z,-3.00
2023-02-26T18:24:44.755Z,-3.10
2023-02-26T18:27:14.761Z,-3.10
2023-02-26T18:29:43.094Z,-3.10
2023-02-26T18:32:13.880Z,-3.20
2023-02-26T18:34:42.147Z,-3.10
2023-02-26T18:37:12.620Z,-3.20
2023-02-26T18:39:40.952Z,-3.40
2023-02-26T18:42:15.581Z,-3.40
2023-02-26T18:44:43.779Z,-3.40
2023-02-26T18:47:12.260Z,-3.40
2023-02-26T18:49:40.527Z,-3.40
2023-02-26T18:52:08.916Z,-3.30
2023-02-26T18:54:37.223Z,-3.40
2023-02-26T18:57:05.859Z,-3.40
2023-02-26T18:59:35.657Z,-3.60
2023-02-26T19:02:04.601Z,-3.50
2023-02-26T19:04:35.981Z,-3.50
2023-02-26T19:07:05.025Z,-3.60
2023-02-26T19:09:35.210Z,-3.70
2023-02-26T19:12:03.494Z,-3.60
2023-02-26T19:14:31.692Z,-3.60
2023-02-26T19:17:01.643Z,-3.70
2023-02-26T19:19:30.135Z,-3.60
2023-02-26T19:21:59.063Z,-3.60
2023-02-26T19:24:27.388Z,-3.60
2023-02-26T19:26:56.125Z,-3.60
2023-02-26T19:29:24.583Z,-3.80
2023-02-26T19:31:52.990Z,-3.80
2023-02-26T19:34:23.654Z,-3.80
2023-02-26T19:36:53.507Z,-3.90
2023-02-26T19:39:21.714Z,-3.90
2023-02-26T19:41:50.602Z,-3.90
2023-02-26T19:44:20.271Z,-3.80
2023-02-26T19:46:51.535Z,-3.90
2023-02-26T19:49:19.674Z,-4.00
2023-02-26T19:51:49.432Z,-3.90
2023-02-26T19:54:20.832Z,-4.00
2023-02-26T19:56:49.563Z,-4.20
2023-02-26T19:59:18.888Z,-4.10
2023-02-26T20:01:49.449Z,-4.10
2023-02-26T20:04:18.248Z,-4.00
2023-02-26T20:06:46.478Z,-4.00
2023-02-26T20:09:17.403Z,-4.10
2023-02-26T20:11:46.715Z,-4.10
2023-02-26T20:14:15.094Z,-4.00
2023-02-26T20:16:43.538Z,-4.10
2023-02-26T20:19:11.707Z,-3.90
2023-02-26T20:21:39.942Z,-3.90
2023-02-26T20:24:08.613Z,-3.90
2023-02-26T20:26:38.384Z,-4.00
2023-02-26T20:29:06.633Z,-3.90
2023-02-26T20:31:34.948Z,-3.70
2023-02-26T20:34:03.413Z,-3.80
2023-02-26T20:36:31.565Z,-3.90
2023-02-26T20:39:02.435Z,-3.90
2023-02-26T20:41:30.797Z,-3.90
2023-02-26T20:44:00.560Z,-3.80
2023-02-26T20:46:29.937Z,-4.00
2023-02-26T20:48:59.906Z,-4.00
2023-02-26T20:51:28.566Z,-4.00
2023-02-26T20:53:57.119Z,-4.00
2023-02-26T20:56:25.612Z,-4.00
2023-02-26T20:58:53.960Z,-4.00
2023-02-26T21:01:23.560Z,-4.00
2023-02-26T21:03:54.179Z,-4.10
2023-02-26T21:06:24.101Z,-4.00
2023-02-26T21:08:52.311Z,-4.00
2023-02-26T21:11:20.519Z,-4.10
2023-02-26T21:13:48.840Z,-4.10
2023-02-26T21:16:16.996Z,-4.20
2023-02-26T21:18:46.752Z,-4.20
2023-02-26T21:21:15.023Z,-4.20
2023-02-26T21:23:43.174Z,-4.30
2023-02-26T21:26:11.367Z,-4.50
2023-02-26T21:28:39.724Z,-4.70
2023-02-26T21:31:07.929Z,-4.70
2023-02-26T21:33:36.148Z,-4.50
2023-02-26T21:36:07.404Z,-4.50
2023-02-26T21:38:35.727Z,-4.60
2023-02-26T21:41:04.754Z,-4.50
2023-02-26T21:43:33.044Z,-4.40
2023-02-26T21:46:01.398Z,-4.40
2023-02-26T21:48:29.552Z,-4.30
2023-02-26T21:50:59.898Z,-4.20
2023-02-26T21:53:29.529Z,-4.00
2023-02-26T21:55:58.435Z,-3.90
2023-02-26T21:58:26.661Z,-3.80
2023-02-26T22:00:54.970Z,-3.60
2023-02-26T22:03:23.353Z,-3.50
2023-02-26T22:05:52.297Z,-3.50
2023-02-26T22:08:21.279Z,-3.40
2023-02-26T22:10:53.716Z,-3.40
2023-02-26T22:13:21.851Z,-3.30
2023-02-26T22:15:50.226Z,-3.30
2023-02-26T22:18:18.391Z,-3.30
2023-02-26T22:20:46.559Z,-3.20
2023-02-26T22:23:14.858Z,-3.20
2023-02-26T22:25:43.016Z,-3.20
2023-02-26T22:28:12.693Z,-3.20
2023-02-26T22:30:41.081Z,-3.10
2023-02-26T22:33:09.311Z,-3.20
2023-02-26T22:35:37.628Z,-3.20
2023-02-26T22:38:05.973Z,-3.10
2023-02-26T22:40:34.231Z,-3.00
2023-02-26T22:43:02.359Z,-3.00
2023-02-26T22:45:32.007Z,-2.90
2023-02-26T22:48:02.197Z,-3.00
2023-02-26T22:50:30.398Z,-2.90
2023-02-26T22:52:58.556Z,-2.90
2023-02-26T22:55:26.745Z,-2.80
2023-02-26T22:57:55.107Z,-2.70
2023-02-26T23:00:23.995Z,-2.60
2023-02-26T23:02:53.723Z,-2.60
2023-02-26T23:05:21.828Z,-2.60
2023-02-26T23:07:50.140Z,-2.60
2023-02-26T23:10:19.726Z,-2.60
2023-02-26T23:12:48.333Z,-2.60
2023-02-26T23:15:16.770Z,-2.50
2023-02-26T23:17:44.963Z,-2.60
2023-02-26T23:20:15.424Z,-2.50
2023-02-26T23:22:44.001Z,-2.50
2023-02-26T23:25:12.673Z,-2.50
2023-02-26T23:27:40.790Z,-2.50
2023-02-26T23:30:09.982Z,-2.50
2023-02-26T23:32:38.212Z,-2.40
2023-02-26T23:35:06.849Z,-2.50
2023-02-26T23:37:37.424Z,-2.60
2023-02-26T23:40:07.477Z,-2.60
2023-02-26T23:42:35.693Z,-2.50
2023-02-26T23:45:04.040Z,-2.50
2023-02-26T23:47:33.555Z,-2.50
2023-02-26T23:50:01.669Z,-2.50
2023-02-26T23:52:29.947Z,-2.50
2023-02-26T23:54:59.643Z,-2.50
2023-02-26T23:57:27.916Z,-2.50
2023-02-26T23:59:56.193Z,-2.50
